sensor_id;sensor_type;location;lat;lon;timestamp;P1;durP1;ratioP1;P2;durP2;ratioP2
10497;SDS011;5296;51.060;13.750;2022-10-04T00:01:06;8.13;;;1.58;;
10497;SDS011;5296;51.060;13.750;2022-10-04T00:06:13;4.97;;;2.05;;
10497;SDS011;5296;51.060;13.750;2022-10-04T00:11:19;3.42;;;1.95;;
10497;SDS011;5296;51.060;13.750;2022-10-04T00:16:36;4.40;;;1.75;;
10497;SDS011;5296;51.060;13.750;2022-10-04T00:32:24;6.72;;;1.90;;
10497;SDS011;5296;51.060;13.750;2022-10-04T00:37:31;4.97;;;1.90;;
10497;SDS011;5296;51.060;13.750;2022-10-04T00:43:23;5.13;;;1.70;;
10497;SDS011;5296;51.060;13.750;2022-10-04T00:48:37;5.75;;;1.75;;
10497;SDS011;5296;51.060;13.750;2022-10-04T01:04:06;5.95;;;2.10;;
10497;SDS011;5296;51.060;13.750;2022-10-04T01:09:21;3.85;;;1.60;;
10497;SDS011;5296;51.060;13.750;2022-10-04T01:14:37;4.70;;;1.95;;
10497;SDS011;5296;51.060;13.750;2022-10-04T01:19:48;6.00;;;1.77;;
10497;SDS011;5296;51.060;13.750;2022-10-04T01:24:51;4.57;;;1.90;;
10497;SDS011;5296;51.060;13.750;2022-10-04T01:29:52;4.93;;;1.77;;
10497;SDS011;5296;51.060;13.750;2022-10-04T01:34:54;5.07;;;1.80;;
10497;SDS011;5296;51.060;13.750;2022-10-04T01:39:56;4.63;;;1.73;;
10497;SDS011;5296;51.060;13.750;2022-10-04T01:50:10;4.00;;;1.55;;
10497;SDS011;5296;51.060;13.750;2022-10-04T01:55:17;6.65;;;1.60;;
10497;SDS011;5296;51.060;13.750;2022-10-04T02:00:21;4.80;;;1.83;;
10497;SDS011;5296;51.060;13.750;2022-10-04T02:05:29;5.25;;;1.88;;
10497;SDS011;5296;51.060;13.750;2022-10-04T02:10:33;5.63;;;1.92;;
10497;SDS011;5296;51.060;13.750;2022-10-04T02:15:43;3.75;;;1.83;;
10497;SDS011;5296;51.060;13.750;2022-10-04T02:20:46;4.47;;;1.90;;
10497;SDS011;5296;51.060;13.750;2022-10-04T02:25:49;6.03;;;1.80;;
10497;SDS011;5296;51.060;13.750;2022-10-04T02:30:52;5.70;;;1.77;;
10497;SDS011;5296;51.060;13.750;2022-10-04T02:36:12;5.35;;;1.90;;
10497;SDS011;5296;51.060;13.750;2022-10-04T02:41:23;3.95;;;1.80;;
10497;SDS011;5296;51.060;13.750;2022-10-04T02:46:30;7.95;;;1.98;;
10497;SDS011;5296;51.060;13.750;2022-10-04T02:56:38;6.93;;;1.90;;
10497;SDS011;5296;51.060;13.750;2022-10-04T03:06:51;6.28;;;1.70;;
10497;SDS011;5296;51.060;13.750;2022-10-04T03:11:53;3.35;;;1.60;;
10497;SDS011;5296;51.060;13.750;2022-10-04T03:16:57;3.90;;;1.77;;
10497;SDS011;5296;51.060;13.750;2022-10-04T03:22:02;3.72;;;1.90;;
10497;SDS011;5296;51.060;13.750;2022-10-04T03:27:07;6.03;;;1.77;;
10497;SDS011;5296;51.060;13.750;2022-10-04T03:32:11;4.85;;;1.77;;
10497;SDS011;5296;51.060;13.750;2022-10-04T03:37:15;8.38;;;2.15;;
10497;SDS011;5296;51.060;13.750;2022-10-04T03:42:38;6.45;;;2.25;;
10497;SDS011;5296;51.060;13.750;2022-10-04T03:47:39;4.43;;;1.83;;
10497;SDS011;5296;51.060;13.750;2022-10-04T03:53:05;7.05;;;1.80;;
10497;SDS011;5296;51.060;13.750;2022-10-04T03:58:12;5.68;;;1.52;;
10497;SDS011;5296;51.060;13.750;2022-10-04T04:03:15;6.03;;;1.90;;
10497;SDS011;5296;51.060;13.750;2022-10-04T04:13:42;6.82;;;2.15;;
10497;SDS011;5296;51.060;13.750;2022-10-04T04:19:00;5.38;;;2.13;;
10497;SDS011;5296;51.060;13.750;2022-10-04T04:24:03;8.00;;;2.28;;
10497;SDS011;5296;51.060;13.750;2022-10-04T04:29:20;4.90;;;1.75;;
10497;SDS011;5296;51.060;13.750;2022-10-04T04:34:32;5.32;;;2.47;;
10497;SDS011;5296;51.060;13.750;2022-10-04T04:39:35;6.03;;;1.83;;
10497;SDS011;5296;51.060;13.750;2022-10-04T04:44:38;5.03;;;1.98;;
10497;SDS011;5296;51.060;13.750;2022-10-04T04:49:47;5.32;;;1.90;;
10497;SDS011;5296;51.060;13.750;2022-10-04T04:54:50;4.57;;;1.98;;
10497;SDS011;5296;51.060;13.750;2022-10-04T04:59:54;4.95;;;1.90;;
10497;SDS011;5296;51.060;13.750;2022-10-04T05:10:31;9.32;;;2.40;;
10497;SDS011;5296;51.060;13.750;2022-10-04T05:15:34;5.53;;;2.00;;
10497;SDS011;5296;51.060;13.750;2022-10-04T05:20:37;8.40;;;2.35;;
10497;SDS011;5296;51.060;13.750;2022-10-04T05:25:39;7.57;;;2.50;;
10497;SDS011;5296;51.060;13.750;2022-10-04T05:36:08;6.63;;;2.17;;
10497;SDS011;5296;51.060;13.750;2022-10-04T05:41:27;7.82;;;3.00;;
10497;SDS011;5296;51.060;13.750;2022-10-04T05:46:34;5.20;;;2.25;;
10497;SDS011;5296;51.060;13.750;2022-10-04T05:51:46;8.82;;;2.58;;
10497;SDS011;5296;51.060;13.750;2022-10-04T06:07:33;7.15;;;2.38;;
10497;SDS011;5296;51.060;13.750;2022-10-04T06:12:43;10.18;;;2.67;;
10497;SDS011;5296;51.060;13.750;2022-10-04T06:18:01;4.90;;;2.08;;
10497;SDS011;5296;51.060;13.750;2022-10-04T06:23:11;4.43;;;2.15;;
10497;SDS011;5296;51.060;13.750;2022-10-04T06:33:35;6.32;;;2.20;;
10497;SDS011;5296;51.060;13.750;2022-10-04T06:39:15;4.57;;;2.15;;
10497;SDS011;5296;51.060;13.750;2022-10-04T07:00:21;6.25;;;2.67;;
10497;SDS011;5296;51.060;13.750;2022-10-04T07:05:27;4.68;;;2.20;;
10497;SDS011;5296;51.060;13.750;2022-10-04T07:10:49;7.68;;;2.20;;
10497;SDS011;5296;51.060;13.750;2022-10-04T07:15:55;4.30;;;1.90;;
10497;SDS011;5296;51.060;13.750;2022-10-04T07:21:07;4.55;;;2.25;;
10497;SDS011;5296;51.060;13.750;2022-10-04T07:26:54;7.43;;;2.28;;
10497;SDS011;5296;51.060;13.750;2022-10-04T07:31:44;10.18;;;2.80;;
10497;SDS011;5296;51.060;13.750;2022-10-04T07:36:47;5.95;;;2.50;;
10497;SDS011;5296;51.060;13.750;2022-10-04T07:41:54;7.18;;;2.25;;
10497;SDS011;5296;51.060;13.750;2022-10-04T07:47:02;7.38;;;2.33;;
10497;SDS011;5296;51.060;13.750;2022-10-04T08:30:27;5.03;;;1.83;;
10497;SDS011;5296;51.060;13.750;2022-10-04T08:35:39;8.05;;;2.22;;
10497;SDS011;5296;51.060;13.750;2022-10-04T09:03:01;8.32;;;2.47;;
10497;SDS011;5296;51.060;13.750;2022-10-04T09:13:44;4.95;;;1.88;;
10497;SDS011;5296;51.060;13.750;2022-10-04T09:24:43;5.68;;;2.38;;
10497;SDS011;5296;51.060;13.750;2022-10-04T09:30:18;5.43;;;2.47;;
10497;SDS011;5296;51.060;13.750;2022-10-04T09:51:23;4.93;;;2.38;;
10497;SDS011;5296;51.060;13.750;2022-10-04T11:06:28;3.63;;;1.77;;
10497;SDS011;5296;51.060;13.750;2022-10-04T11:22:50;4.22;;;1.52;;
10497;SDS011;5296;51.060;13.750;2022-10-04T11:28:11;3.90;;;1.42;;
10497;SDS011;5296;51.060;13.750;2022-10-04T11:33:24;6.22;;;1.90;;
10497;SDS011;5296;51.060;13.750;2022-10-04T12:00:24;5.82;;;2.25;;
10497;SDS011;5296;51.060;13.750;2022-10-04T12:05:32;4.72;;;1.85;;
10497;SDS011;5296;51.060;13.750;2022-10-04T12:10:41;4.03;;;1.58;;
10497;SDS011;5296;51.060;13.750;2022-10-04T12:16:03;4.53;;;1.70;;
10497;SDS011;5296;51.060;13.750;2022-10-04T12:21:24;2.47;;;1.30;;
10497;SDS011;5296;51.060;13.750;2022-10-04T12:47:49;7.93;;;2.50;;
10497;SDS011;5296;51.060;13.750;2022-10-04T12:52:53;5.85;;;1.90;;
10497;SDS011;5296;51.060;13.750;2022-10-04T12:58:02;5.95;;;1.80;;
10497;SDS011;5296;51.060;13.750;2022-10-04T13:03:15;8.43;;;2.05;;
10497;SDS011;5296;51.060;13.750;2022-10-04T13:13:53;10.02;;;1.80;;
10497;SDS011;5296;51.060;13.750;2022-10-04T13:19:04;5.50;;;1.92;;
10497;SDS011;5296;51.060;13.750;2022-10-04T13:25:37;4.18;;;1.67;;
10497;SDS011;5296;51.060;13.750;2022-10-04T13:30:23;4.70;;;1.60;;
10497;SDS011;5296;51.060;13.750;2022-10-04T13:35:32;9.10;;;1.98;;
10497;SDS011;5296;51.060;13.750;2022-10-04T13:45:42;6.60;;;1.83;;
10497;SDS011;5296;51.060;13.750;2022-10-04T14:13:33;3.60;;;1.42;;
10497;SDS011;5296;51.060;13.750;2022-10-04T14:29:29;3.03;;;1.30;;
10497;SDS011;5296;51.060;13.750;2022-10-04T15:06:24;2.83;;;1.50;;
10497;SDS011;5296;51.060;13.750;2022-10-04T15:11:35;3.80;;;1.20;;
10497;SDS011;5296;51.060;13.750;2022-10-04T15:16:44;3.25;;;1.45;;
10497;SDS011;5296;51.060;13.750;2022-10-04T15:22:12;2.47;;;1.20;;
10497;SDS011;5296;51.060;13.750;2022-10-04T15:27:35;4.57;;;1.90;;
10497;SDS011;5296;51.060;13.750;2022-10-04T15:37:59;3.97;;;1.48;;
10497;SDS011;5296;51.060;13.750;2022-10-04T15:43:21;1.63;;;1.20;;
10497;SDS011;5296;51.060;13.750;2022-10-04T16:09:48;1.95;;;1.17;;
10497;SDS011;5296;51.060;13.750;2022-10-04T16:15:11;2.50;;;1.13;;
10497;SDS011;5296;51.060;13.750;2022-10-04T16:25:37;3.35;;;1.40;;
10497;SDS011;5296;51.060;13.750;2022-10-04T16:30:45;2.72;;;1.17;;
10497;SDS011;5296;51.060;13.750;2022-10-04T16:36:10;1.92;;;1.25;;
10497;SDS011;5296;51.060;13.750;2022-10-04T16:41:14;2.80;;;1.35;;
10497;SDS011;5296;51.060;13.750;2022-10-04T16:46:41;1.42;;;1.10;;
10497;SDS011;5296;51.060;13.750;2022-10-04T16:52:07;2.05;;;1.30;;
10497;SDS011;5296;51.060;13.750;2022-10-04T16:57:18;3.22;;;1.50;;
10497;SDS011;5296;51.060;13.750;2022-10-04T17:08:16;2.75;;;1.48;;
10497;SDS011;5296;51.060;13.750;2022-10-04T17:13:24;2.90;;;1.70;;
10497;SDS011;5296;51.060;13.750;2022-10-04T17:19:13;3.80;;;2.13;;
10497;SDS011;5296;51.060;13.750;2022-10-04T17:30:15;4.80;;;2.38;;
10497;SDS011;5296;51.060;13.750;2022-10-04T17:40:53;5.57;;;1.92;;
10497;SDS011;5296;51.060;13.750;2022-10-04T17:56:43;3.72;;;2.40;;
10497;SDS011;5296;51.060;13.750;2022-10-04T18:01:50;3.90;;;2.33;;
10497;SDS011;5296;51.060;13.750;2022-10-04T18:06:56;7.18;;;2.92;;
10497;SDS011;5296;51.060;13.750;2022-10-04T18:17:37;4.13;;;3.40;;
10497;SDS011;5296;51.060;13.750;2022-10-04T18:22:46;6.05;;;3.47;;
10497;SDS011;5296;51.060;13.750;2022-10-04T18:27:58;6.13;;;3.63;;
10497;SDS011;5296;51.060;13.750;2022-10-04T18:33:18;5.60;;;3.78;;
10497;SDS011;5296;51.060;13.750;2022-10-04T18:38:27;9.10;;;3.75;;
10497;SDS011;5296;51.060;13.750;2022-10-04T18:43:30;7.90;;;3.55;;
10497;SDS011;5296;51.060;13.750;2022-10-04T18:48:35;4.80;;;3.35;;
10497;SDS011;5296;51.060;13.750;2022-10-04T18:53:41;4.75;;;3.92;;
10497;SDS011;5296;51.060;13.750;2022-10-04T19:09:52;5.90;;;3.70;;
10497;SDS011;5296;51.060;13.750;2022-10-04T19:15:02;8.07;;;4.05;;
10497;SDS011;5296;51.060;13.750;2022-10-04T19:20:19;5.80;;;3.70;;
10497;SDS011;5296;51.060;13.750;2022-10-04T19:36:11;4.68;;;3.90;;
10497;SDS011;5296;51.060;13.750;2022-10-04T19:46:50;5.50;;;3.70;;
10497;SDS011;5296;51.060;13.750;2022-10-04T19:57:12;5.00;;;3.60;;
10497;SDS011;5296;51.060;13.750;2022-10-04T20:02:15;3.75;;;3.28;;
10497;SDS011;5296;51.060;13.750;2022-10-04T20:07:18;4.13;;;3.40;;
10497;SDS011;5296;51.060;13.750;2022-10-04T20:12:33;5.28;;;3.20;;
10497;SDS011;5296;51.060;13.750;2022-10-04T20:17:36;5.80;;;3.83;;
10497;SDS011;5296;51.060;13.750;2022-10-04T20:32:53;4.90;;;3.28;;
10497;SDS011;5296;51.060;13.750;2022-10-04T20:48:20;5.05;;;3.20;;
10497;SDS011;5296;51.060;13.750;2022-10-04T20:58:29;4.20;;;3.80;;
10497;SDS011;5296;51.060;13.750;2022-10-04T21:03:33;5.85;;;3.30;;
10497;SDS011;5296;51.060;13.750;2022-10-04T21:08:36;4.57;;;3.15;;
10497;SDS011;5296;51.060;13.750;2022-10-04T21:19:26;7.43;;;3.58;;
10497;SDS011;5296;51.060;13.750;2022-10-04T21:24:34;3.78;;;3.25;;
10497;SDS011;5296;51.060;13.750;2022-10-04T21:29:39;5.80;;;3.38;;
10497;SDS011;5296;51.060;13.750;2022-10-04T21:34:41;5.32;;;3.33;;
10497;SDS011;5296;51.060;13.750;2022-10-04T21:39:54;4.80;;;3.70;;
10497;SDS011;5296;51.060;13.750;2022-10-04T21:44:56;5.40;;;3.70;;
10497;SDS011;5296;51.060;13.750;2022-10-04T21:49:57;5.22;;;3.65;;
10497;SDS011;5296;51.060;13.750;2022-10-04T21:54:59;5.45;;;3.83;;
10497;SDS011;5296;51.060;13.750;2022-10-04T22:00:01;6.45;;;3.47;;
10497;SDS011;5296;51.060;13.750;2022-10-04T22:05:12;4.32;;;3.20;;
10497;SDS011;5296;51.060;13.750;2022-10-04T22:10:13;5.82;;;3.75;;
10497;SDS011;5296;51.060;13.750;2022-10-04T22:15:15;5.35;;;3.33;;
10497;SDS011;5296;51.060;13.750;2022-10-04T22:20:17;7.03;;;3.40;;
10497;SDS011;5296;51.060;13.750;2022-10-04T22:25:19;6.25;;;3.40;;
10497;SDS011;5296;51.060;13.750;2022-10-04T22:35:27;5.43;;;3.60;;
10497;SDS011;5296;51.060;13.750;2022-10-04T22:40:29;6.75;;;3.60;;
10497;SDS011;5296;51.060;13.750;2022-10-04T22:45:30;5.10;;;3.50;;
10497;SDS011;5296;51.060;13.750;2022-10-04T22:50:35;4.57;;;3.05;;
10497;SDS011;5296;51.060;13.750;2022-10-04T22:55:38;4.35;;;3.33;;
10497;SDS011;5296;51.060;13.750;2022-10-04T23:00:41;3.70;;;3.10;;
10497;SDS011;5296;51.060;13.750;2022-10-04T23:05:43;5.68;;;3.35;;
10497;SDS011;5296;51.060;13.750;2022-10-04T23:10:45;4.80;;;3.25;;
10497;SDS011;5296;51.060;13.750;2022-10-04T23:15:47;5.93;;;3.15;;
10497;SDS011;5296;51.060;13.750;2022-10-04T23:20:52;3.97;;;3.03;;
10497;SDS011;5296;51.060;13.750;2022-10-04T23:25:56;6.20;;;3.28;;
10497;SDS011;5296;51.060;13.750;2022-10-04T23:30:59;4.85;;;2.72;;
10497;SDS011;5296;51.060;13.750;2022-10-04T23:36:08;5.63;;;2.88;;
10497;SDS011;5296;51.060;13.750;2022-10-04T23:41:11;3.28;;;2.95;;
10497;SDS011;5296;51.060;13.750;2022-10-04T23:46:16;3.10;;;2.80;;
10497;SDS011;5296;51.060;13.750;2022-10-04T23:51:18;3.22;;;2.50;;
10497;SDS011;5296;51.060;13.750;2022-10-04T23:56:22;4.90;;;2.70;;
